Terminal Aerodrome Forecast
Issued by NWS

Home | Current Version | Previous Version | Text Only | Print | Product List | Glossary On
Versions: 1 2 3 4 5 6 7 8 9 10 11 12 13 14 15 16 17 18 19 20 21 22 23 24 25 26 27 28 29 30 31 32 33 34 35 36 37 38 39 40 41 42 43 44 45 46 47 48 49 50
000
FTUS46 KOTX 242320
TAFPUW
TAF
KPUW 242320Z 2500/2524 14003KT P6SM FEW035 BKN060
     FM250200 VRB02KT P6SM FEW070 SCT200
     FM251500 25006KT P6SM SCT010 BKN060
     FM251800 25011G16KT P6SM SCT025 BKN200=

USA.gov is the U.S. government's official web portal to all federal, state and local government web resources and services.